createdAt,value
2023-01-03T00:01:31.853Z,8.50
2023-01-03T00:05:49.430Z,8.50
2023-01-03T00:10:11.145Z,8.50
2023-01-03T00:14:31.279Z,8.30
2023-01-03T00:18:48.378Z,8.20
2023-01-03T00:23:05.472Z,8.10
2023-01-03T00:27:22.569Z,8.00
2023-01-03T00:31:40.545Z,8.10
2023-01-03T00:36:02.466Z,8.10
2023-01-03T00:40:19.691Z,8.10
2023-01-03T00:44:36.843Z,8.00
2023-01-03T00:48:53.954Z,8.00
2023-01-03T00:53:11.020Z,8.00
2023-01-03T00:57:28.074Z,7.90
2023-01-03T01:01:51.162Z,7.90
2023-01-03T01:06:17.499Z,7.90
2023-01-03T01:10:34.559Z,7.80
2023-01-03T01:14:51.768Z,7.70
2023-01-03T01:19:08.815Z,7.40
2023-01-03T01:23:26.124Z,7.20
2023-01-03T01:27:43.244Z,7.30
2023-01-03T01:32:01.700Z,7.50
2023-01-03T01:36:24.766Z,7.70
2023-01-03T01:40:41.892Z,7.80
2023-01-03T01:45:12.209Z,7.90
2023-01-03T01:49:29.317Z,8.00
2023-01-03T01:53:46.485Z,8.00
2023-01-03T01:58:05.351Z,8.10
2023-01-03T02:02:24.074Z,8.20
2023-01-03T02:06:42.108Z,8.20
2023-01-03T02:11:23.859Z,8.20
2023-01-03T02:15:44.011Z,8.20
2023-01-03T02:20:28.082Z,8.10
2023-01-03T02:25:17.875Z,8.10
2023-01-03T02:30:15.532Z,8.10
2023-01-03T02:34:43.609Z,8.00
2023-01-03T02:39:13.591Z,8.00
2023-01-03T02:43:47.230Z,7.90
2023-01-03T02:48:28.395Z,7.90
2023-01-03T02:52:49.184Z,7.70
2023-01-03T02:57:10.404Z,7.40
2023-01-03T03:01:29.825Z,7.20
2023-01-03T03:05:56.650Z,7.00
2023-01-03T03:10:32.643Z,6.80
2023-01-03T03:14:53.325Z,6.40
2023-01-03T03:19:42.443Z,6.10
2023-01-03T03:24:23.956Z,5.70
2023-01-03T03:28:44.679Z,5.60
2023-01-03T03:33:06.180Z,5.80
2023-01-03T03:37:25.821Z,5.80
2023-01-03T03:42:07.845Z,5.90
2023-01-03T03:46:31.117Z,6.00
2023-01-03T03:51:08.538Z,5.90
2023-01-03T03:55:37.896Z,6.00
2023-01-03T03:59:59.199Z,6.00
2023-01-03T04:04:27.047Z,6.00
2023-01-03T04:08:44.571Z,6.00
2023-01-03T04:13:01.649Z,5.80
2023-01-03T04:17:18.719Z,5.60
2023-01-03T04:21:36.676Z,5.40
2023-01-03T04:25:53.793Z,5.30
2023-01-03T04:30:11.564Z,5.30
2023-01-03T04:34:28.687Z,5.30
2023-01-03T04:38:45.854Z,5.50
2023-01-03T04:43:21.696Z,5.70
2023-01-03T04:47:38.912Z,5.80
2023-01-03T04:51:56.049Z,5.80
2023-01-03T04:56:13.148Z,5.90
2023-01-03T05:00:30.248Z,6.00
2023-01-03T05:04:47.307Z,5.90
2023-01-03T05:09:04.380Z,6.00
2023-01-03T05:13:22.184Z,6.10
2023-01-03T05:17:39.272Z,6.20
2023-01-03T05:22:15.249Z,6.30
2023-01-03T05:26:32.355Z,6.30
2023-01-03T05:30:49.723Z,6.50
2023-01-03T05:35:07.195Z,6.60
2023-01-03T05:39:24.287Z,6.70
2023-01-03T05:43:41.462Z,6.80
2023-01-03T05:47:58.641Z,6.90
2023-01-03T05:52:15.723Z,6.90
2023-01-03T05:56:32.874Z,7.00
2023-01-03T06:00:50.113Z,7.00
2023-01-03T06:05:08.069Z,7.00
2023-01-03T06:09:25.180Z,6.90
2023-01-03T06:13:42.643Z,6.70
2023-01-03T06:18:02.158Z,6.40
2023-01-03T06:22:19.371Z,6.20
2023-01-03T06:26:36.821Z,6.00
2023-01-03T06:30:53.955Z,5.80
2023-01-03T06:35:11.676Z,5.60
2023-01-03T06:39:28.735Z,5.40
2023-01-03T06:43:45.992Z,5.40
2023-01-03T06:48:25.616Z,5.50
2023-01-03T06:53:01.527Z,5.60
2023-01-03T06:57:25.846Z,5.70
2023-01-03T07:01:45.595Z,5.90
2023-01-03T07:06:02.661Z,6.00
2023-01-03T07:10:19.816Z,6.20
2023-01-03T07:14:36.895Z,6.20
2023-01-03T07:18:55.598Z,6.20
2023-01-03T07:23:13.752Z,6.10
2023-01-03T07:27:30.802Z,5.90
2023-01-03T07:31:47.990Z,5.70
2023-01-03T07:36:11.767Z,5.40
2023-01-03T07:40:29.513Z,5.10
2023-01-03T07:44:46.570Z,4.90
2023-01-03T07:49:08.027Z,4.80
2023-01-03T07:53:29.385Z,4.60
2023-01-03T07:57:46.429Z,4.60
2023-01-03T08:02:03.561Z,4.70
2023-01-03T08:06:24.161Z,4.70
2023-01-03T08:11:00.094Z,4.60
2023-01-03T08:15:17.163Z,4.60
2023-01-03T08:19:35.256Z,4.60
2023-01-03T08:23:54.847Z,4.70
2023-01-03T08:28:12.401Z,4.70
2023-01-03T08:32:30.911Z,4.80
2023-01-03T08:36:49.473Z,5.00
2023-01-03T08:41:09.597Z,5.00
2023-01-03T08:45:27.128Z,5.20
2023-01-03T08:49:44.342Z,5.40
2023-01-03T08:54:01.408Z,5.60
2023-01-03T08:58:18.487Z,5.70
2023-01-03T09:02:36.587Z,5.90
2023-01-03T09:06:53.892Z,6.10
2023-01-03T09:11:11.553Z,6.30
2023-01-03T09:15:28.629Z,6.30
2023-01-03T09:19:45.709Z,6.50
2023-01-03T09:24:02.761Z,6.70
2023-01-03T09:28:19.959Z,6.90
2023-01-03T09:32:37.667Z,7.00
2023-01-03T09:36:54.831Z,7.10
2023-01-03T09:41:21.573Z,7.00
2023-01-03T09:45:40.017Z,6.90
2023-01-03T09:50:29.087Z,7.00
2023-01-03T09:54:57.947Z,7.20
2023-01-03T09:59:36.698Z,7.40
2023-01-03T10:04:01.556Z,7.60
2023-01-03T10:08:56.431Z,7.70
2023-01-03T10:13:48.177Z,7.90
2023-01-03T10:18:28.666Z,8.00
2023-01-03T10:22:48.356Z,8.10
2023-01-03T10:27:22.093Z,8.10
2023-01-03T10:31:45.070Z,8.30
2023-01-03T10:36:02.470Z,8.30
2023-01-03T10:40:20.011Z,8.40
2023-01-03T10:44:37.121Z,8.50
2023-01-03T10:53:40.909Z,8.70
2023-01-03T10:58:13.900Z,8.70
2023-01-03T11:02:42.220Z,8.70
2023-01-03T11:07:08.563Z,8.70
2023-01-03T11:11:34.330Z,8.80
2023-01-03T11:15:56.241Z,9.00
2023-01-03T11:20:20.336Z,9.00
2023-01-03T11:25:08.562Z,9.00
2023-01-03T11:29:51.862Z,8.90
2023-01-03T11:34:27.175Z,8.90
2023-01-03T11:39:22.809Z,9.10
2023-01-03T11:44:23.218Z,9.00
2023-01-03T11:49:04.864Z,9.30
2023-01-03T11:53:49.573Z,9.30
2023-01-03T11:58:24.815Z,9.20
2023-01-03T12:02:54.098Z,9.20
2023-01-03T12:07:47.630Z,9.00
2023-01-03T12:12:22.047Z,9.10
2023-01-03T12:16:47.704Z,9.30
2023-01-03T12:21:11.281Z,9.30
2023-01-03T12:25:37.016Z,9.60
2023-01-03T12:30:06.266Z,10.10
2023-01-03T12:34:35.074Z,10.00
2023-01-03T12:39:33.042Z,9.20
2023-01-03T12:44:03.999Z,9.30
2023-01-03T12:48:46.732Z,9.40
2023-01-03T12:53:32.005Z,9.70
2023-01-03T12:58:01.234Z,9.70
2023-01-03T13:02:49.496Z,9.20
2023-01-03T13:07:15.171Z,8.90
2023-01-03T13:11:37.199Z,9.00
2023-01-03T13:15:54.853Z,8.90
2023-01-03T13:20:24.860Z,8.70
2023-01-03T13:24:53.331Z,8.60
2023-01-03T13:29:35.241Z,8.50
2023-01-03T13:33:52.262Z,8.40
2023-01-03T13:38:31.904Z,8.50
2023-01-03T13:42:49.574Z,8.40
2023-01-03T13:47:07.039Z,8.40
2023-01-03T13:51:32.227Z,8.40
2023-01-03T13:55:59.931Z,8.40
2023-01-03T14:00:21.014Z,8.50
2023-01-03T14:05:25.875Z,8.60
2023-01-03T14:10:05.476Z,8.80
2023-01-03T14:14:28.081Z,8.90
2023-01-03T14:18:51.110Z,8.80
2023-01-03T14:23:57.254Z,8.70
2023-01-03T14:27:48.115Z,8.70
2023-01-03T14:32:05.375Z,8.40
2023-01-03T14:36:22.835Z,8.30
2023-01-03T14:40:46.914Z,8.10
2023-01-03T14:45:06.783Z,8.00
2023-01-03T14:49:30.104Z,7.90
2023-01-03T14:53:47.278Z,7.70
2023-01-03T14:58:24.583Z,7.60
2023-01-03T15:02:42.128Z,7.50
2023-01-03T15:07:07.979Z,7.40
2023-01-03T15:11:56.859Z,7.20
2023-01-03T15:16:25.811Z,6.90
2023-01-03T15:20:44.782Z,6.60
2023-01-03T15:25:11.323Z,6.30
2023-01-03T15:29:44.139Z,6.10
2023-01-03T15:34:02.626Z,5.80
2023-01-03T15:38:28.699Z,5.60
2023-01-03T15:43:04.707Z,5.50
2023-01-03T15:47:25.378Z,5.50
2023-01-03T15:51:42.564Z,5.40
2023-01-03T15:56:06.672Z,5.20
2023-01-03T16:00:26.026Z,5.10
2023-01-03T16:04:45.451Z,5.10
2023-01-03T16:09:02.655Z,5.20
2023-01-03T16:13:20.951Z,5.10
2023-01-03T16:17:38.168Z,5.10
2023-01-03T16:22:33.487Z,5.00
2023-01-03T16:26:36.918Z,4.80
2023-01-03T16:31:13.954Z,4.70
2023-01-03T16:35:31.075Z,4.50
2023-01-03T16:39:48.957Z,4.40
2023-01-03T16:44:06.143Z,4.30
2023-01-03T16:48:25.391Z,4.30
2023-01-03T16:52:46.692Z,4.10
2023-01-03T16:57:03.851Z,4.10
2023-01-03T17:01:21.290Z,4.20
2023-01-03T17:05:39.111Z,4.20
2023-01-03T17:09:56.215Z,4.20
2023-01-03T17:14:21.980Z,4.30
2023-01-03T17:18:42.071Z,4.50
2023-01-03T17:23:00.347Z,4.60
2023-01-03T17:27:29.368Z,4.70
2023-01-03T17:31:48.792Z,4.50
2023-01-03T17:36:13.774Z,4.20
2023-01-03T17:40:34.292Z,4.10
2023-01-03T17:45:11.303Z,4.10
2023-01-03T17:49:28.431Z,4.20
2023-01-03T17:53:46.382Z,4.40
2023-01-03T17:58:04.450Z,4.40
2023-01-03T18:02:24.731Z,4.40
2023-01-03T18:06:42.379Z,4.40
2023-01-03T18:10:59.665Z,4.40
2023-01-03T18:15:19.306Z,4.60
2023-01-03T18:19:36.370Z,4.70
2023-01-03T18:24:18.341Z,4.80
2023-01-03T18:28:35.590Z,4.90
2023-01-03T18:32:52.908Z,5.10
2023-01-03T18:37:10.220Z,5.30
2023-01-03T18:41:29.375Z,5.40
2023-01-03T18:45:46.787Z,5.40
2023-01-03T18:50:04.770Z,5.50
2023-01-03T18:54:21.984Z,5.60
2023-01-03T18:58:40.374Z,5.70
2023-01-03T19:02:57.597Z,5.70
2023-01-03T19:07:23.167Z,5.80
2023-01-03T19:11:40.957Z,5.80
2023-01-03T19:15:58.266Z,6.00
2023-01-03T19:20:15.840Z,5.90
2023-01-03T19:24:39.416Z,5.90
2023-01-03T19:29:00.078Z,5.80
2023-01-03T19:33:19.260Z,5.90
2023-01-03T19:37:36.405Z,5.80
2023-01-03T19:42:16.933Z,5.80
2023-01-03T19:46:34.050Z,5.60
2023-01-03T19:50:52.941Z,5.50
2023-01-03T19:55:11.732Z,5.50
2023-01-03T19:59:34.785Z,5.50
2023-01-03T20:03:53.240Z,5.60
2023-01-03T20:08:12.433Z,5.60
2023-01-03T20:12:29.932Z,5.70
2023-01-03T20:16:47.411Z,5.70
2023-01-03T20:21:12.449Z,5.70
2023-01-03T20:25:33.854Z,5.80
2023-01-03T20:29:51.550Z,5.80
2023-01-03T20:34:09.796Z,5.90
2023-01-03T20:38:27.376Z,5.80
2023-01-03T20:42:45.050Z,5.80
2023-01-03T20:47:02.229Z,5.80
2023-01-03T20:51:19.610Z,5.60
2023-01-03T20:55:36.733Z,5.50
2023-01-03T20:59:53.897Z,5.40
2023-01-03T21:04:12.436Z,5.20
2023-01-03T21:08:48.086Z,5.00
2023-01-03T21:13:06.108Z,4.90
2023-01-03T21:17:23.197Z,4.70
2023-01-03T21:21:42.410Z,4.50
2023-01-03T21:25:59.484Z,4.40
2023-01-03T21:30:18.077Z,4.40
2023-01-03T21:34:35.106Z,4.30
2023-01-03T21:38:52.209Z,4.20
2023-01-03T21:43:09.946Z,4.20
2023-01-03T21:47:27.043Z,4.20
2023-01-03T21:51:44.143Z,4.30
2023-01-03T21:56:05.495Z,4.20
2023-01-03T22:00:23.102Z,4.10
2023-01-03T22:04:40.157Z,4.10
2023-01-03T22:08:59.265Z,4.20
2023-01-03T22:13:16.854Z,4.20
2023-01-03T22:17:37.178Z,4.30
2023-01-03T22:21:54.231Z,4.40
2023-01-03T22:26:14.049Z,4.60
2023-01-03T22:30:31.681Z,4.70
2023-01-03T22:34:48.788Z,4.80
2023-01-03T22:39:05.868Z,4.80
2023-01-03T22:43:23.192Z,4.70
2023-01-03T22:47:40.260Z,4.60
2023-01-03T22:51:57.427Z,4.50
2023-01-03T22:56:15.791Z,4.40
2023-01-03T23:00:33.001Z,4.40
2023-01-03T23:04:51.205Z,4.40
2023-01-03T23:09:08.548Z,4.50
2023-01-03T23:13:25.631Z,4.60
2023-01-03T23:17:58.200Z,4.40
2023-01-03T23:22:15.681Z,4.30
2023-01-03T23:26:33.053Z,4.30
2023-01-03T23:30:50.126Z,4.20
2023-01-03T23:35:07.654Z,4.20
2023-01-03T23:39:24.756Z,4.20
2023-01-03T23:43:41.892Z,4.30
2023-01-03T23:47:58.985Z,4.50
2023-01-03T23:52:16.105Z,4.60
2023-01-03T23:56:33.308Z,4.70
